Time;durP1;ratioP1;P1;durP2;ratioP2;P2;SDS_P1;SDS_P2;PMS_P1;PMS_P2;Temp;Humidity;BMP_temperature;BMP_pressure;BME280_temperature;BME280_humidity;BME280_pressure;Samples;Min_cycle;Max_cycle;Signal;HPM_P1;HPM_P2
2023/10/12 00:01:23;;;;;;;8.70;3.33;;;17.50;99.90;;;;;;5115111;28;20173;-80
2023/10/12 00:03:54;;;;;;;10.13;4.03;;;17.40;1.00;;;;;;5116144;28;20167;-81
2023/10/12 00:06:20;;;;;;;8.03;3.97;;;17.40;1.00;;;;;;5115542;28;20155;-80
2023/10/12 00:08:45;;;;;;;5.63;3.43;;;17.40;99.90;;;;;;5116837;28;20217;-80
2023/10/12 00:11:11;;;;;;;7.30;3.50;;;17.40;1.00;;;;;;5116206;28;20207;-81
2023/10/12 00:13:41;;;;;;;6.83;3.70;;;17.40;99.90;;;;;;5116497;28;20174;-80
2023/10/12 00:16:09;;;;;;;8.80;3.77;;;17.40;99.90;;;;;;5116920;28;20716;-80
2023/10/12 00:18:35;;;;;;;7.03;3.50;;;17.40;99.90;;;;;;5115480;28;20580;-80
2023/10/12 00:21:08;;;;;;;11.33;3.97;;;17.40;1.00;;;;;;5113879;28;20172;-81
2023/10/12 00:23:34;;;;;;;6.90;3.30;;;17.40;1.00;;;;;;5116818;28;20225;-81
2023/10/12 00:25:59;;;;;;;7.43;3.60;;;17.40;1.00;;;;;;5116099;28;20168;-81
2023/10/12 00:28:38;;;;;;;5.10;3.50;;;17.50;99.90;;;;;;5116224;28;20248;-80
2023/10/12 00:31:06;;;;;;;7.30;3.57;;;17.40;1.00;;;;;;5114551;28;20248;-81
2023/10/12 00:33:32;;;;;;;8.83;3.53;;;17.40;1.00;;;;;;5115333;28;20229;-80
2023/10/12 00:36:04;;;;;;;7.70;3.73;;;17.40;95.90;;;;;;5116370;28;20176;-81
2023/10/12 00:38:30;;;;;;;7.63;3.50;;;17.40;99.90;;;;;;5114764;28;20198;-80
2023/10/12 00:40:58;;;;;;;7.90;4.17;;;17.30;99.90;;;;;;5114018;28;20168;-80
2023/10/12 00:43:36;;;;;;;7.93;3.60;;;17.30;99.90;;;;;;5115669;28;20259;-80
2023/10/12 00:46:39;;;;;;;5.73;3.80;;;17.20;1.00;;;;;;5114179;28;20182;-80
2023/10/12 00:49:13;;;;;;;8.63;3.67;;;17.20;1.00;;;;;;5115154;28;20190;-80
2023/10/12 00:51:37;;;;;;;7.37;3.67;;;17.20;1.00;;;;;;5114922;28;20172;-80
2023/10/12 00:54:04;;;;;;;7.70;3.83;;;17.20;1.00;;;;;;5114454;28;20176;-80
2023/10/12 00:59:06;;;;;;;6.03;3.73;;;17.10;1.00;;;;;;5050242;28;20224;-83
2023/10/12 01:01:32;;;;;;;9.23;3.67;;;17.10;1.00;;;;;;5037833;28;20177;-83
2023/10/12 01:03:58;;;;;;;6.47;3.83;;;17.10;1.00;;;;;;5051858;28;20257;-83
2023/10/12 01:08:51;;;;;;;8.07;4.23;;;17.00;1.00;;;;;;5034274;28;20194;-82
2023/10/12 01:11:30;;;;;;;5.47;3.53;;;17.00;1.00;;;;;;5040664;28;20177;-82
2023/10/12 01:16:29;;;;;;;8.30;4.27;;;16.90;1.00;;;;;;5054294;28;20200;-83
2023/10/12 01:19:00;;;;;;;7.27;4.20;;;16.90;1.00;;;;;;5054069;28;20210;-83
2023/10/12 01:21:28;;;;;;;9.37;4.13;;;16.90;1.00;;;;;;5053343;28;20645;-82
2023/10/12 01:24:00;;;;;;;8.67;4.03;;;16.80;1.00;;;;;;5054061;28;20185;-84
2023/10/12 01:26:26;;;;;;;8.90;4.20;;;16.80;1.00;;;;;;5069181;28;20572;-82
2023/10/12 01:28:52;;;;;;;7.90;4.20;;;16.80;1.00;;;;;;5054220;28;20209;-82
2023/10/12 01:31:30;;;;;;;8.03;3.73;;;16.80;1.00;;;;;;5053242;28;20257;-82
2023/10/12 01:33:57;;;;;;;8.23;3.77;;;16.80;1.00;;;;;;5053417;28;20169;-82
2023/10/12 01:36:27;;;;;;;7.73;3.90;;;16.90;1.00;;;;;;5052566;28;20178;-83
2023/10/12 01:39:10;;;;;;;7.80;4.00;;;16.90;1.00;;;;;;5068866;28;20689;-83
2023/10/12 01:41:40;;;;;;;7.30;3.67;;;16.90;1.00;;;;;;5068973;28;20256;-82
2023/10/12 01:44:12;;;;;;;10.30;3.80;;;16.90;1.00;;;;;;5069050;28;20665;-83
2023/10/12 01:46:39;;;;;;;8.30;4.50;;;16.90;1.00;;;;;;5068991;28;20176;-82
2023/10/12 01:49:09;;;;;;;9.17;4.23;;;16.90;1.00;;;;;;5069592;28;20174;-84
2023/10/12 01:51:40;;;;;;;5.30;3.30;;;16.90;1.00;;;;;;5068463;28;20227;-82
2023/10/12 01:54:11;;;;;;;6.53;3.80;;;16.90;1.00;;;;;;5053483;28;20162;-82
2023/10/12 01:56:38;;;;;;;7.87;3.90;;;16.90;1.00;;;;;;5053907;28;20262;-84
2023/10/12 01:59:07;;;;;;;7.83;3.97;;;16.90;1.00;;;;;;5088583;28;20291;-83
2023/10/12 02:01:33;;;;;;;7.17;3.60;;;16.90;1.00;;;;;;5071477;28;20268;-82
2023/10/12 02:04:02;;;;;;;9.40;4.00;;;16.90;1.00;;;;;;5072343;28;20645;-84
2023/10/12 02:06:28;;;;;;;8.60;3.93;;;16.90;1.00;;;;;;5073798;28;20203;-83
2023/10/12 02:08:54;;;;;;;7.20;3.63;;;16.90;1.00;;;;;;5073548;28;20196;-82
2023/10/12 02:13:47;;;;;;;7.33;3.80;;;16.90;1.00;;;;;;5073423;28;20203;-82
2023/10/12 02:16:30;;;;;;;7.53;3.40;;;16.80;1.00;;;;;;5073033;28;20169;-82
2023/10/12 02:18:56;;;;;;;7.90;3.87;;;16.80;1.00;;;;;;5071895;28;20205;-82
2023/10/12 02:21:22;;;;;;;11.30;4.30;;;16.80;1.00;;;;;;5072599;28;20173;-84
2023/10/12 02:24:10;;;;;;;8.20;3.70;;;16.80;1.00;;;;;;5073168;28;20248;-83
2023/10/12 02:31:38;;;;;;;7.93;3.83;;;16.90;1.00;;;;;;5073022;28;20176;-82
2023/10/12 02:34:13;;;;;;;8.50;3.50;;;16.90;1.00;;;;;;5073408;28;20419;-82
2023/10/12 02:36:39;;;;;;;11.53;3.67;;;16.90;1.00;;;;;;5071476;28;20184;-82
2023/10/12 02:39:10;;;;;;;6.77;3.60;;;16.90;1.00;;;;;;5073610;28;20204;-82
2023/10/12 02:41:37;;;;;;;8.53;3.73;;;17.00;1.00;;;;;;5072853;28;20173;-82
2023/10/12 02:44:11;;;;;;;8.37;4.20;;;17.00;1.00;;;;;;5073834;28;20235;-84
2023/10/12 02:46:41;;;;;;;6.37;3.90;;;16.90;1.00;;;;;;5076840;28;20171;-82
2023/10/12 02:49:07;;;;;;;7.30;4.03;;;16.90;1.00;;;;;;5075746;28;20702;-83
2023/10/12 02:51:39;;;;;;;6.33;3.67;;;16.90;1.00;;;;;;5075536;28;20177;-82
2023/10/12 02:54:05;;;;;;;7.63;3.73;;;16.80;1.00;;;;;;5077202;28;20546;-83
2023/10/12 02:56:31;;;;;;;8.00;3.97;;;16.80;1.00;;;;;;5076676;28;20180;-83
2023/10/12 02:59:03;;;;;;;8.93;3.87;;;16.80;1.00;;;;;;5076562;28;20261;-83
2023/10/12 03:01:29;;;;;;;6.27;3.80;;;16.80;1.00;;;;;;5076274;28;20172;-82
2023/10/12 03:03:56;;;;;;;7.53;3.70;;;16.80;1.00;;;;;;5075101;28;20169;-83
2023/10/12 03:06:23;;;;;;;7.23;4.03;;;16.80;1.00;;;;;;5076811;28;20169;-83
2023/10/12 03:11:26;;;;;;;5.17;3.60;;;16.90;1.00;;;;;;5075767;28;20175;-83
2023/10/12 03:14:35;;;;;;;10.87;4.03;;;16.90;1.00;;;;;;5076457;28;20200;-84
2023/10/12 03:16:42;;;;;;;9.43;3.83;;;16.90;1.00;;;;;;5068143;28;20187;-82
2023/10/12 03:21:49;;;;;;;7.43;4.20;;;16.90;1.00;;;;;;5055741;28;20176;-82
2023/10/12 03:24:16;;;;;;;8.80;4.33;;;16.90;1.00;;;;;;5071772;28;20169;-83
2023/10/12 03:26:48;;;;;;;6.50;4.00;;;16.90;1.00;;;;;;5054813;28;20174;-82
2023/10/12 03:31:53;;;;;;;10.10;3.83;;;16.90;1.00;;;;;;5056031;28;20229;-82
2023/10/12 03:35:05;;;;;;;8.33;3.53;;;16.90;1.00;;;;;;5055144;28;20177;-82
2023/10/12 03:37:13;;;;;;;9.67;3.50;;;16.90;1.00;;;;;;5048365;28;20205;-83
2023/10/12 03:44:57;;;;;;;8.20;4.03;;;16.90;1.00;;;;;;5056203;28;20220;-82
2023/10/12 03:52:39;;;;;;;8.57;3.67;;;16.90;1.00;;;;;;5055046;28;20173;-82
2023/10/12 04:02:42;;;;;;;7.60;4.27;;;16.90;1.00;;;;;;5075442;28;20161;-83
2023/10/12 04:13:09;;;;;;;7.90;4.00;;;16.80;1.00;;;;;;5075395;28;20222;-82
2023/10/12 04:16:05;;;;;;;8.73;3.83;;;16.70;1.00;;;;;;5073937;28;20183;-82
2023/10/12 04:18:28;;;;;;;5.93;3.90;;;16.60;1.00;;;;;;5075019;28;20209;-83
2023/10/12 04:20:57;;;;;;;6.33;3.70;;;16.60;1.00;;;;;;5074720;28;20196;-83
2023/10/12 04:28:39;;;;;;;6.70;4.10;;;16.60;1.00;;;;;;5075132;28;20192;-83
2023/10/12 04:46:51;;;;;;;6.40;4.03;;;16.60;1.00;;;;;;5074987;28;20195;-83
2023/10/12 04:51:50;;;;;;;8.90;4.20;;;16.60;1.00;;;;;;5074518;28;20177;-83
2023/10/12 04:54:23;;;;;;;12.80;4.10;;;16.60;1.00;;;;;;5074952;28;20168;-83
2023/10/12 04:59:28;;;;;;;10.03;4.00;;;16.50;40.10;;;;;;5074661;28;20196;-83
2023/10/12 05:04:38;;;;;;;11.33;4.97;;;16.50;43.60;;;;;;5074193;28;20172;-83
2023/10/12 05:09:37;;;;;;;6.60;4.10;;;16.40;90.70;;;;;;5074424;28;20258;-83
2023/10/12 05:12:03;;;;;;;7.93;4.53;;;16.40;99.90;;;;;;5074370;28;20184;-82
2023/10/12 05:14:30;;;;;;;7.93;4.30;;;16.40;99.90;;;;;;5074505;28;20192;-82
2023/10/12 05:16:56;;;;;;;6.13;4.00;;;16.40;99.90;;;;;;5071488;28;20265;-83
2023/10/12 05:19:22;;;;;;;7.77;4.47;;;16.40;99.90;;;;;;5074841;28;20315;-83
2023/10/12 05:21:47;;;;;;;6.83;4.27;;;16.30;99.90;;;;;;5073118;28;20196;-81
2023/10/12 05:24:13;;;;;;;7.47;4.33;;;16.30;99.90;;;;;;5074655;28;20199;-83
2023/10/12 05:26:39;;;;;;;8.37;4.50;;;16.30;99.90;;;;;;5074569;28;20165;-82
2023/10/12 05:32:18;;;;;;;7.40;4.10;;;16.20;99.90;;;;;;5074993;28;20207;-84
2023/10/12 05:34:46;;;;;;;;;;;;;;;;;;;;;
2023/10/12 05:37:37;;;;;;;9.87;4.50;;;16.20;99.90;;;;;;5073625;28;20193;-85
2023/10/12 05:40:10;;;;;;;9.20;4.97;;;16.20;99.90;;;;;;5073567;28;20232;-83
2023/10/12 05:42:39;;;;;;;7.00;3.90;;;16.10;99.90;;;;;;5071841;28;20224;-87
2023/10/12 05:45:44;;;;;;;8.10;4.47;;;16.20;99.90;;;;;;5073370;28;20165;-83
2023/10/12 05:47:57;;;;;;;9.80;4.20;;;16.20;99.90;;;;;;5070505;28;20199;-84
2023/10/12 05:50:23;;;;;;;9.17;4.53;;;16.20;99.90;;;;;;5072556;28;20267;-84
2023/10/12 05:52:59;;;;;;;9.37;4.50;;;16.20;99.90;;;;;;5073136;28;20169;-81
2023/10/12 05:55:25;;;;;;;8.30;4.30;;;16.10;99.90;;;;;;5074352;28;20188;-80
2023/10/12 05:57:51;;;;;;;6.40;4.47;;;16.00;99.90;;;;;;5072787;28;20212;-83
2023/10/12 06:00:35;;;;;;;7.20;4.37;;;15.70;99.90;;;;;;5074157;28;20173;-82
2023/10/12 06:03:05;;;;;;;7.77;4.43;;;15.60;99.90;;;;;;5072367;28;20169;-82
2023/10/12 06:05:31;;;;;;;10.20;4.80;;;15.60;99.90;;;;;;5072692;28;20223;-82
2023/10/12 06:08:00;;;;;;;6.67;4.50;;;15.60;99.90;;;;;;5072289;28;20201;-85
2023/10/12 06:10:30;;;;;;;10.27;4.77;;;15.60;99.90;;;;;;5072027;28;20590;-80
2023/10/12 06:12:56;;;;;;;6.97;4.30;;;15.60;99.90;;;;;;5073960;28;20204;-82
2023/10/12 06:15:25;;;;;;;9.03;4.80;;;15.60;99.90;;;;;;5072549;28;20778;-81
2023/10/12 06:17:51;;;;;;;8.33;4.67;;;15.60;99.90;;;;;;5071909;28;20303;-82
2023/10/12 06:20:30;;;;;;;8.87;4.70;;;15.60;99.90;;;;;;5076124;28;20245;-82
2023/10/12 06:22:56;;;;;;;7.83;4.90;;;15.70;99.90;;;;;;5076117;28;20180;-81
2023/10/12 06:25:22;;;;;;;8.03;4.83;;;15.70;99.90;;;;;;5076754;28;20200;-81
2023/10/12 06:27:51;;;;;;;9.10;4.60;;;15.80;99.90;;;;;;5093430;28;20688;-81
2023/10/12 06:30:17;;;;;;;9.13;4.37;;;15.90;99.90;;;;;;5078364;28;20188;-81
2023/10/12 06:32:46;;;;;;;7.53;4.13;;;15.90;99.90;;;;;;5076018;28;20177;-82
2023/10/12 06:45:48;;;;;;;8.43;4.80;;;15.90;99.90;;;;;;5076811;28;20172;-82
2023/10/12 06:51:12;;;;;;;8.47;4.80;;;15.80;99.90;;;;;;5077799;28;20180;-81
2023/10/12 06:53:41;;;;;;;9.13;5.00;;;15.80;99.90;;;;;;5075742;28;20188;-82
2023/10/12 06:58:40;;;;;;;9.07;4.90;;;15.80;99.90;;;;;;5082557;22;20232;-82
2023/10/12 07:01:27;;;;;;;9.83;5.27;;;15.80;99.90;;;;;;5075217;28;20173;-82
2023/10/12 07:03:55;;;;;;;8.40;5.23;;;15.90;99.90;;;;;;5076805;28;20180;-82
2023/10/12 07:06:20;;;;;;;7.00;5.03;;;15.90;99.90;;;;;;5075520;28;20306;-82
2023/10/12 07:08:46;;;;;;;8.73;5.10;;;15.90;99.90;;;;;;5075610;28;20228;-82
2023/10/12 07:11:14;;;;;;;7.37;4.90;;;15.90;99.90;;;;;;5074932;28;20173;-82
2023/10/12 07:13:41;;;;;;;7.60;5.00;;;15.90;99.90;;;;;;5076806;28;20173;-82
2023/10/12 07:16:10;;;;;;;9.23;4.50;;;15.90;99.90;;;;;;5075288;28;20618;-82
2023/10/12 07:18:42;;;;;;;9.97;4.70;;;15.90;99.90;;;;;;5076702;28;20217;-82
2023/10/12 07:21:20;;;;;;;9.40;5.13;;;15.80;99.90;;;;;;5076375;28;20177;-82
2023/10/12 07:23:52;;;;;;;6.17;4.77;;;15.80;99.90;;;;;;5075298;28;20706;-82
2023/10/12 07:26:21;;;;;;;7.67;5.13;;;15.90;99.90;;;;;;5075663;28;20173;-81
2023/10/12 07:28:50;;;;;;;6.83;4.53;;;15.90;99.90;;;;;;5075372;28;20197;-82
2023/10/12 07:36:35;;;;;;;8.20;4.60;;;16.00;99.90;;;;;;5076501;28;20184;-82
2023/10/12 07:41:56;;;;;;;6.93;4.53;;;16.10;99.90;;;;;;5075628;28;20199;-82
2023/10/12 07:44:27;;;;;;;7.47;4.20;;;16.10;99.90;;;;;;5076686;28;20169;-82
2023/10/12 07:46:57;;;;;;;8.80;5.03;;;16.10;99.90;;;;;;5074713;28;20223;-82
2023/10/12 07:49:40;;;;;;;10.07;4.97;;;16.10;99.90;;;;;;5074565;28;20256;-82
2023/10/12 07:52:22;;;;;;;6.80;4.70;;;16.10;99.90;;;;;;5075589;28;20169;-82
2023/10/12 07:57:22;;;;;;;8.43;5.00;;;16.10;99.90;;;;;;5075493;28;20254;-82
2023/10/12 08:02:32;;;;;;;6.43;4.70;;;16.10;99.90;;;;;;5075586;28;20198;-81
2023/10/12 08:05:06;;;;;;;13.23;5.27;;;16.00;99.90;;;;;;5074275;28;20672;-82
2023/10/12 08:07:55;;;;;;;7.63;5.13;;;16.00;99.90;;;;;;5074410;28;20188;-82
2023/10/12 08:10:29;;;;;;;9.70;4.67;;;16.00;99.90;;;;;;5075555;28;20318;-83
2023/10/12 08:12:55;;;;;;;8.27;5.00;;;15.90;99.90;;;;;;5073486;28;20167;-82
2023/10/12 08:15:32;;;;;;;9.30;5.00;;;15.90;99.90;;;;;;5075359;28;20259;-82
2023/10/12 08:18:12;;;;;;;10.63;5.30;;;15.90;99.90;;;;;;5074119;28;20204;-82
2023/10/12 08:20:45;;;;;;;7.07;5.30;;;15.80;99.90;;;;;;5073801;28;20175;-82
2023/10/12 08:23:10;;;;;;;10.93;5.73;;;15.80;99.90;;;;;;5074720;28;20181;-82
2023/10/12 08:25:39;;;;;;;8.63;5.67;;;15.80;99.90;;;;;;5075743;28;20204;-81
2023/10/12 08:28:06;;;;;;;9.33;4.90;;;15.70;99.90;;;;;;5074888;28;20714;-81
2023/10/12 08:33:48;;;;;;;9.00;4.60;;;15.70;99.90;;;;;;5075437;28;20180;-83
2023/10/12 08:39:07;;;;;;;9.13;5.07;;;15.70;99.90;;;;;;5075062;28;20208;-82
2023/10/12 08:42:30;;;;;;;8.47;4.47;;;15.80;99.90;;;;;;5074194;28;20181;-81
2023/10/12 08:44:22;;;;;;;8.47;4.83;;;15.70;99.90;;;;;;5066201;28;20338;-82
2023/10/12 08:49:34;;;;;;;7.17;4.90;;;15.70;99.90;;;;;;5074470;28;20191;-82
2023/10/12 08:52:07;;;;;;;8.57;5.43;;;15.80;99.90;;;;;;5074534;28;20630;-82
2023/10/12 08:54:37;;;;;;;7.03;4.47;;;15.80;99.90;;;;;;5074921;28;20185;-82
2023/10/12 08:57:19;;;;;;;6.83;4.73;;;15.90;99.90;;;;;;5072994;28;20181;-82
2023/10/12 09:00:23;;;;;;;11.10;5.40;;;15.90;99.90;;;;;;5073147;28;20250;-81
2023/10/12 09:02:49;;;;;;;7.57;4.30;;;15.90;99.90;;;;;;5069069;28;20219;-80
2023/10/12 09:05:24;;;;;;;8.97;4.47;;;15.80;99.90;;;;;;5073126;28;20177;-81
2023/10/12 09:08:06;;;;;;;9.13;5.07;;;15.80;99.90;;;;;;5075091;28;20211;-81
2023/10/12 09:10:51;;;;;;;12.60;4.67;;;15.80;99.90;;;;;;5072265;28;20185;-79
2023/10/12 09:13:19;;;;;;;6.27;4.73;;;15.90;99.90;;;;;;5074844;28;20169;-82
2023/10/12 09:15:46;;;;;;;6.70;4.83;;;15.90;99.90;;;;;;5073512;28;20307;-82
2023/10/12 09:18:14;;;;;;;5.90;4.50;;;15.90;99.90;;;;;;5074408;28;20201;-82
2023/10/12 09:20:58;;;;;;;8.13;4.80;;;16.00;99.90;;;;;;5072947;28;20206;-82
2023/10/12 09:28:53;;;;;;;8.90;4.90;;;16.10;99.90;;;;;;5074248;28;20208;-81
2023/10/12 09:36:55;;;;;;;10.80;5.70;;;16.10;99.90;;;;;;5074545;28;20218;-81
2023/10/12 09:39:34;;;;;;;9.77;5.33;;;16.10;99.90;;;;;;5072061;28;20195;-83
2023/10/12 09:42:13;;;;;;;9.37;5.20;;;16.10;99.90;;;;;;5073715;28;20277;-83
2023/10/12 09:44:40;;;;;;;11.70;5.80;;;16.10;99.90;;;;;;5074095;28;20169;-83
2023/10/12 09:47:15;;;;;;;8.53;5.57;;;16.10;99.90;;;;;;5072656;28;20196;-84
2023/10/12 09:49:53;;;;;;;9.73;5.30;;;16.10;99.90;;;;;;5073677;28;20202;-84
2023/10/12 09:52:23;;;;;;;8.20;5.30;;;16.10;99.90;;;;;;5071828;28;20169;-82
2023/10/12 09:55:13;;;;;;;12.37;5.40;;;16.10;99.90;;;;;;5071751;28;20209;-83
2023/10/12 09:57:40;;;;;;;11.10;5.50;;;16.10;99.90;;;;;;5074081;28;20213;-83
2023/10/12 10:00:27;;;;;;;9.30;5.80;;;16.10;99.90;;;;;;5074076;28;20169;-84
2023/10/12 10:02:55;;;;;;;12.10;6.00;;;16.10;99.90;;;;;;5073513;28;20173;-83
2023/10/12 10:07:58;;;;;;;7.70;4.97;;;16.10;99.90;;;;;;5073320;28;20216;-82
2023/10/12 10:10:32;;;;;;;47.83;14.67;;;16.10;99.90;;;;;;5073574;28;20220;-79
2023/10/12 10:13:00;;;;;;;19.97;8.83;;;16.00;99.90;;;;;;5070040;28;20180;-84
2023/10/12 10:15:36;;;;;;;41.17;12.70;;;16.10;99.90;;;;;;5074010;28;20177;-85
2023/10/12 10:18:04;;;;;;;7.27;5.13;;;16.40;99.90;;;;;;5073876;28;20545;-81
2023/10/12 10:23:01;;;;;;;9.90;5.50;;;16.20;99.90;;;;;;5071661;28;20173;-85
2023/10/12 10:26:00;;;;;;;7.23;5.57;;;16.10;99.90;;;;;;5070804;28;20173;-86
2023/10/12 10:28:28;;;;;;;9.23;5.37;;;16.00;99.90;;;;;;5072745;28;20207;-85
2023/10/12 10:30:59;;;;;;;10.20;5.40;;;16.00;99.90;;;;;;5072544;28;20256;-84
2023/10/12 10:33:26;;;;;;;9.43;5.60;;;15.90;99.90;;;;;;5072034;28;20173;-86
2023/10/12 10:36:26;;;;;;;12.03;5.40;;;15.90;99.90;;;;;;5071860;28;20181;-82
2023/10/12 10:44:13;;;;;;;9.77;5.73;;;15.80;99.90;;;;;;5071588;28;20675;-81
2023/10/12 10:46:43;;;;;;;7.37;5.03;;;15.80;99.90;;;;;;5071573;28;20260;-81
2023/10/12 10:49:15;;;;;;;8.13;5.10;;;15.80;99.90;;;;;;5071313;28;20687;-81
2023/10/12 10:51:42;;;;;;;9.67;5.43;;;15.80;99.90;;;;;;5070950;28;20173;-81
2023/10/12 10:54:18;;;;;;;9.07;5.30;;;15.80;99.90;;;;;;5072963;28;20667;-82
2023/10/12 10:56:47;;;;;;;7.90;5.40;;;15.80;99.90;;;;;;5072535;28;20250;-81
2023/10/12 10:59:13;;;;;;;8.53;5.57;;;15.80;99.90;;;;;;5071617;28;20209;-81
2023/10/12 11:01:48;;;;;;;10.20;5.20;;;15.80;99.90;;;;;;5071969;28;20183;-81
2023/10/12 11:04:41;;;;;;;9.80;5.67;;;15.80;99.90;;;;;;5072594;28;20191;-81
2023/10/12 11:07:09;;;;;;;7.53;4.97;;;15.80;99.90;;;;;;5076037;28;20200;-81
2023/10/12 11:10:19;;;;;;;13.13;5.47;;;15.90;99.90;;;;;;5076585;28;20645;-81
2023/10/12 11:12:36;;;;;;;7.43;5.03;;;15.90;99.90;;;;;;5067007;28;20566;-81
2023/10/12 11:15:11;;;;;;;9.73;5.40;;;15.80;99.90;;;;;;5073487;28;20645;-81
2023/10/12 11:17:55;;;;;;;8.83;5.67;;;15.80;99.90;;;;;;5073273;28;20192;-81
2023/10/12 11:20:27;;;;;;;8.63;4.87;;;15.80;99.90;;;;;;5073352;28;20173;-81
2023/10/12 11:22:57;;;;;;;8.13;5.37;;;15.90;99.90;;;;;;5073747;28;20646;-83
2023/10/12 11:25:26;;;;;;;12.43;5.47;;;15.80;99.90;;;;;;5072665;28;20255;-81
2023/10/12 11:27:53;;;;;;;7.83;5.20;;;15.90;99.90;;;;;;5076073;28;20215;-81
2023/10/12 11:30:34;;;;;;;8.73;5.10;;;15.80;99.90;;;;;;5076149;28;20169;-81
2023/10/12 11:33:00;;;;;;;8.20;5.13;;;15.80;99.90;;;;;;5074489;28;20207;-80
2023/10/12 11:35:40;;;;;;;12.43;5.83;;;15.80;99.90;;;;;;5076033;28;20201;-81
2023/10/12 11:38:15;;;;;;;8.53;5.13;;;15.80;99.90;;;;;;5074123;28;20280;-81
2023/10/12 11:40:41;;;;;;;10.10;5.20;;;15.80;99.90;;;;;;5074823;28;20165;-81
2023/10/12 11:43:06;;;;;;;8.30;5.00;;;15.80;99.90;;;;;;5075782;28;20671;-81
2023/10/12 11:45:35;;;;;;;9.97;4.60;;;15.80;99.90;;;;;;5075825;28;20169;-81
2023/10/12 11:48:20;;;;;;;10.70;4.80;;;15.90;99.90;;;;;;5068981;28;20192;-81
2023/10/12 11:50:48;;;;;;;9.60;5.13;;;15.90;99.90;;;;;;5074662;28;20271;-82
2023/10/12 11:53:17;;;;;;;6.90;4.37;;;16.00;99.90;;;;;;5074715;28;20185;-81
2023/10/12 11:55:44;;;;;;;8.40;4.60;;;16.00;99.90;;;;;;5075674;28;20259;-80
2023/10/12 11:58:13;;;;;;;7.30;4.60;;;16.00;99.90;;;;;;5056081;28;20209;-79
2023/10/12 12:00:44;;;;;;;8.70;5.00;;;16.00;99.90;;;;;;5053179;28;20182;-81
2023/10/12 12:03:11;;;;;;;8.67;4.47;;;16.10;99.90;;;;;;5053352;28;20709;-83
2023/10/12 12:05:37;;;;;;;11.03;5.10;;;16.10;99.90;;;;;;5066677;28;20209;-81
2023/10/12 12:08:07;;;;;;;8.83;4.70;;;16.20;99.90;;;;;;5065751;28;20193;-81
2023/10/12 12:10:45;;;;;;;6.87;4.40;;;16.20;99.90;;;;;;5069662;28;20173;-81
2023/10/12 12:13:15;;;;;;;6.77;4.97;;;16.30;99.90;;;;;;5053235;28;20200;-81
2023/10/12 12:15:43;;;;;;;8.30;5.00;;;16.30;99.90;;;;;;5053440;28;20219;-82
2023/10/12 12:18:14;;;;;;;10.87;4.40;;;16.40;99.90;;;;;;5055097;28;20201;-81
2023/10/12 12:20:42;;;;;;;7.57;4.57;;;16.40;99.90;;;;;;5059506;28;20165;-81
2023/10/12 12:23:10;;;;;;;7.50;4.80;;;16.40;99.90;;;;;;5073941;28;20283;-81
2023/10/12 12:25:39;;;;;;;11.93;4.83;;;16.40;99.90;;;;;;5074439;28;20581;-81
2023/10/12 12:28:08;;;;;;;8.83;5.00;;;16.50;99.90;;;;;;5065124;28;20200;-83
2023/10/12 12:30:39;;;;;;;9.27;4.60;;;16.50;99.90;;;;;;5059329;28;20184;-83
2023/10/12 12:33:08;;;;;;;10.30;4.53;;;16.60;99.90;;;;;;5062393;28;20197;-82
2023/10/12 12:35:39;;;;;;;7.43;4.67;;;16.70;99.90;;;;;;5074256;28;20177;-83
2023/10/12 12:38:43;;;;;;;8.07;4.37;;;16.70;99.90;;;;;;5071947;28;20208;-82
2023/10/12 12:41:19;;;;;;;9.37;4.57;;;16.70;99.90;;;;;;5064393;28;20180;-83
2023/10/12 12:43:48;;;;;;;7.47;4.47;;;16.70;99.90;;;;;;5059266;28;20166;-82
2023/10/12 12:46:15;;;;;;;7.90;4.57;;;16.70;99.90;;;;;;5070000;28;20200;-83
2023/10/12 12:48:45;;;;;;;9.97;4.47;;;16.70;99.90;;;;;;5067979;28;20199;-83
2023/10/12 12:51:13;;;;;;;7.63;4.83;;;16.60;99.90;;;;;;5064205;28;20189;-82
2023/10/12 12:53:39;;;;;;;9.00;4.97;;;16.70;99.90;;;;;;5067350;28;20567;-83
2023/10/12 12:56:05;;;;;;;7.10;5.10;;;16.60;99.90;;;;;;5072554;28;20177;-83
2023/10/12 12:58:32;;;;;;;7.47;5.40;;;16.60;99.90;;;;;;5101246;22;20293;-83
2023/10/12 13:01:00;;;;;;;9.97;5.73;;;16.70;99.90;;;;;;5034705;28;20170;-82
2023/10/12 13:03:28;;;;;;;7.47;4.90;;;16.70;99.90;;;;;;5034810;28;20181;-82
2023/10/12 13:05:54;;;;;;;10.23;5.67;;;16.70;99.90;;;;;;5024360;28;20224;-88
2023/10/12 13:08:20;;;;;;;10.00;5.30;;;16.90;99.90;;;;;;5034677;28;20191;-82
2023/10/12 13:10:45;;;;;;;9.57;4.97;;;16.90;99.90;;;;;;5039109;28;20185;-81
2023/10/12 13:13:12;;;;;;;7.37;5.07;;;17.00;99.90;;;;;;5018061;28;20182;-82
2023/10/12 13:15:41;;;;;;;7.70;4.90;;;17.20;99.90;;;;;;5017351;28;20213;-82
2023/10/12 13:18:14;;;;;;;6.97;5.23;;;17.40;99.90;;;;;;5035085;28;20202;-80
2023/10/12 13:20:49;;;;;;;8.53;5.43;;;17.50;99.90;;;;;;5034713;28;20732;-82
2023/10/12 13:23:21;;;;;;;8.27;5.93;;;17.40;99.90;;;;;;5034821;28;20174;-81
2023/10/12 13:25:47;;;;;;;10.40;5.67;;;17.30;99.90;;;;;;5016971;28;20174;-81
2023/10/12 13:28:13;;;;;;;8.97;5.40;;;17.10;99.90;;;;;;5034748;28;20191;-82
2023/10/12 13:30:39;;;;;;;11.67;5.93;;;17.20;99.90;;;;;;5017066;28;20261;-82
2023/10/12 13:33:06;;;;;;;9.73;5.33;;;17.30;99.90;;;;;;5035293;28;20178;-82
2023/10/12 13:35:37;;;;;;;6.93;5.30;;;17.30;99.90;;;;;;5017552;28;20170;-82
2023/10/12 13:38:03;;;;;;;7.63;5.80;;;17.30;99.90;;;;;;5035186;28;20198;-81
2023/10/12 13:40:30;;;;;;;7.83;5.80;;;17.30;99.90;;;;;;5017433;28;20181;-82
2023/10/12 13:43:06;;;;;;;8.93;5.60;;;17.30;99.90;;;;;;5035309;28;20171;-82
2023/10/12 13:45:32;;;;;;;10.27;5.63;;;17.30;99.90;;;;;;5035006;28;20174;-82
2023/10/12 13:47:58;;;;;;;7.40;5.30;;;17.40;99.90;;;;;;5017109;28;20198;-81
2023/10/12 13:50:24;;;;;;;7.63;6.00;;;17.40;99.90;;;;;;5034922;28;20178;-82
2023/10/12 13:52:49;;;;;;;9.73;5.93;;;17.40;99.90;;;;;;5016751;28;20181;-82
2023/10/12 13:55:15;;;;;;;9.10;6.10;;;17.30;99.90;;;;;;5017427;28;20178;-82
2023/10/12 13:57:50;;;;;;;7.60;6.40;;;17.30;99.90;;;;;;5016669;28;20206;-81
2023/10/12 14:00:26;;;;;;;9.47;6.23;;;17.30;99.90;;;;;;5017681;28;20176;-82
2023/10/12 14:02:56;;;;;;;9.13;6.43;;;17.20;99.90;;;;;;5018464;28;20547;-81
2023/10/12 14:05:27;;;;;;;9.43;6.33;;;17.00;99.90;;;;;;5009075;28;20171;-81
2023/10/12 14:07:58;;;;;;;10.83;6.70;;;16.80;99.90;;;;;;5035142;28;20198;-81
2023/10/12 14:10:27;;;;;;;8.40;6.33;;;16.80;99.90;;;;;;5017433;28;20670;-83
2023/10/12 14:12:56;;;;;;;9.00;5.90;;;16.80;99.90;;;;;;5035074;28;20634;-81
2023/10/12 14:15:28;;;;;;;7.73;6.03;;;16.80;99.90;;;;;;5032291;28;20182;-81
2023/10/12 14:17:58;;;;;;;9.47;6.23;;;16.80;99.90;;;;;;5031623;28;20195;-81
2023/10/12 14:20:26;;;;;;;8.77;6.20;;;16.70;99.90;;;;;;5034588;28;20198;-81
2023/10/12 14:23:05;;;;;;;9.83;6.10;;;16.80;99.90;;;;;;5016743;28;20190;-82
2023/10/12 14:25:35;;;;;;;8.77;6.57;;;16.80;99.90;;;;;;5034242;28;20551;-81
2023/10/12 14:28:05;;;;;;;9.13;6.40;;;16.80;99.90;;;;;;5015465;28;20205;-81
2023/10/12 14:30:31;;;;;;;9.43;5.83;;;16.80;99.90;;;;;;5030967;28;20182;-82
2023/10/12 14:32:57;;;;;;;10.03;6.23;;;16.80;99.90;;;;;;5016268;28;20175;-81
2023/10/12 14:35:27;;;;;;;9.90;6.10;;;16.80;99.90;;;;;;5026343;28;20179;-81
2023/10/12 14:37:55;;;;;;;9.70;5.90;;;16.70;99.90;;;;;;5016219;28;20195;-81
2023/10/12 14:40:29;;;;;;;12.87;6.40;;;16.70;99.90;;;;;;5035428;28;20230;-81
2023/10/12 14:42:55;;;;;;;8.37;6.17;;;16.70;99.90;;;;;;5020394;28;20171;-83
2023/10/12 14:45:21;;;;;;;11.90;5.93;;;16.70;99.90;;;;;;5038484;28;20181;-82
2023/10/12 14:47:47;;;;;;;7.67;5.87;;;16.70;99.90;;;;;;5037794;28;20237;-82
2023/10/12 14:50:20;;;;;;;10.00;6.00;;;16.70;99.90;;;;;;5020430;28;20202;-82
2023/10/12 14:52:46;;;;;;;7.90;5.97;;;16.80;99.90;;;;;;5020144;28;20662;-81
2023/10/12 14:55:11;;;;;;;12.90;6.03;;;16.70;99.90;;;;;;5038180;28;20193;-81
2023/10/12 14:57:38;;;;;;;9.20;6.10;;;16.70;99.90;;;;;;5037967;28;20320;-81
2023/10/12 15:00:22;;;;;;;9.67;6.03;;;16.70;99.90;;;;;;5020497;28;20224;-81
2023/10/12 15:02:51;;;;;;;11.70;6.03;;;16.70;99.90;;;;;;5037861;28;20261;-81
2023/10/12 15:05:17;;;;;;;7.33;5.60;;;16.70;99.90;;;;;;5038426;28;20263;-81
2023/10/12 15:07:42;;;;;;;8.90;5.60;;;16.70;99.90;;;;;;5038061;28;20217;-81
2023/10/12 15:10:08;;;;;;;9.13;5.57;;;16.70;99.90;;;;;;5038075;28;20253;-81
2023/10/12 15:12:34;;;;;;;9.40;5.90;;;16.70;99.90;;;;;;5037432;28;20167;-81
2023/10/12 15:15:09;;;;;;;8.60;6.07;;;16.70;99.90;;;;;;5020564;28;20181;-81
2023/10/12 15:17:39;;;;;;;6.63;5.53;;;16.70;99.90;;;;;;5019814;28;20221;-81
2023/10/12 15:20:06;;;;;;;9.33;5.97;;;16.60;99.90;;;;;;5038111;28;20228;-81
2023/10/12 15:22:32;;;;;;;9.73;6.10;;;16.60;99.90;;;;;;5037936;28;20175;-81
2023/10/12 15:24:58;;;;;;;9.73;6.80;;;16.60;99.90;;;;;;5020307;28;20167;-81
2023/10/12 15:27:25;;;;;;;9.23;6.33;;;16.60;99.90;;;;;;5019755;28;20175;-81
2023/10/12 15:29:51;;;;;;;9.37;5.97;;;16.50;99.90;;;;;;5019806;28;20179;-81